Terminal Aerodrome Forecast
Issued by NWS

Home | Current Version | Previous Version | Text Only | Print | Product List | Glossary Off
Versions: 1 2 3 4 5 6 7 8 9 10 11 12 13 14 15 16 17 18 19 20 21 22 23 24 25 26 27 28 29 30 31 32 33

000
FTUS43 KLOT 031500 AAB
TAFMDW
TAF AMD
KMDW 031524Z 0315/0412 17015G25KT 2SM -FZRA BR OVC006
     FM031600 19016G25KT 3SM -FZDZ BR OVC008
     FM031800 20016G24KT 4SM -DZ OVC008
     FM032100 26013G22KT P6SM OVC015
     FM040200 29012G20KT P6SM OVC025=

USA.gov is the U.S. government's official web portal to all federal, state and local government web resources and services.